Sligo Airport - TAF
(Terminal Area Forecast)

Issued at 23:21 UTC on Mon. 18-Mar-19

--- METARS(SA) ---

METAR EISG(SLIGO) 182300Z AUTO 23008KT 7000 OVC034 08/07 Q1023 =

--- TAFS() ---

TAF EISG(SLIGO) 182300Z 1900/1909 21009KT 9999 FEW013 BKN022 BECMG

1900/1902 18008KT 7000 BKN013 TEMPO 1902/1909 4000 -DZ BKN008 PROB30

TEMPO 1906/1909 2500 BKN004 BECMG 1907/1909 21008KT =

--- SIGMETS(WS) ---

IE - No VALID SIGMETS/Warnings FOR THIS AREA

--- SIGMETS Volcanic(WV) ---

IE - No VALID SIGMETS/Warnings FOR THIS AREA

--- SIGMETS(WS) ---

UK - No VALID SIGMETS/Warnings FOR THIS AREA

Sligo Airport - METARs

Latest METARs for Sligo and Donegal Airports - updated every 30 mins